Portada
METAR-TAF:

METAR-TAF

Aeroports :

Puerto Limón, Costa Rica

latitud: 10-00N, longitud: 083-03W, altitud: 5 m

Observació

L'informe es va fer fa 43 minuts, a les 12:00 UTC
Vent 4 kt del Nord/Nord-Oest
Temperatura 22°C
Humitat 83%
Pressió 1013 hPa
Visibilitat 10 km o més
Núvols disperses a una alçada de 1500 ft
Cel ennuvolat a una alçada de 9000 ft

METAR: MRLM 191200Z 33004KT 9999 SCT015 BKN090 22/19 A2991

Hora: 06:43 (12:43 UTC)

Pronòstic

L'informe es va fer fa 1 hora i 43 minuts, a les 11:00 UTC
Pronòstic vàlid del 19 a les 12 UTC al 20 a les 12 UTC
Vent 7 kt del Sud-Oest
Visibilitat 10 km o més
Escasses núvols a una alçada de 2000 ft
Evolucionant progressivament
l' 19 a les 14 UTC al 19 a les 17 UTC
Vent 7 kt del Nord
Temporalment
l' 19 a les 22 UTC al 20 a les 06 UTC
Cel ennuvolat a una alçada de 2000 ft
plugim

TAF: MRLM 191100Z 1912/2012 23007KT 9999 FEW020 TX30/1920Z TN22/2011Z BECMG 1914/1917 35007KT TEMPO 1922/2006 DZ BKN020

Observacions i pronòstics meteorològics de més de 4000 aeroports (METAR i TAF).

Les estacions disponibles són els punts grocs i vermells al mapa.

Posi el ratolí al punt desitjat per veure el nom de l'estació.

Feu clic per veure les observacions i els pronòstics meteorològics.

Per canviar el mapa: feu clic els botons verds amb una creu de color negre per apropar; al botó verd amb un guió per allunyar la imatge; o en les fletxes verdes per a mapes adjacents.


METAR-TAF: